sensor_id;sensor_type;location;lat;lon;timestamp;temperature;humidity
46754;DHT22;32500;50.620;3.400;2022-12-04T00:01:02;16.00;59.20
46754;DHT22;32500;50.620;3.400;2022-12-04T00:03:28;16.00;59.30
46754;DHT22;32500;50.620;3.400;2022-12-04T00:06:05;16.00;59.50
46754;DHT22;32500;50.620;3.400;2022-12-04T00:08:31;16.00;59.30
46754;DHT22;32500;50.620;3.400;2022-12-04T00:10:57;15.90;59.20
46754;DHT22;32500;50.620;3.400;2022-12-04T00:13:23;15.90;59.30
46754;DHT22;32500;50.620;3.400;2022-12-04T00:15:48;16.00;59.30
46754;DHT22;32500;50.620;3.400;2022-12-04T00:18:14;15.90;59.20
46754;DHT22;32500;50.620;3.400;2022-12-04T00:20:40;15.90;59.20
46754;DHT22;32500;50.620;3.400;2022-12-04T00:23:06;15.90;59.20
46754;DHT22;32500;50.620;3.400;2022-12-04T00:25:31;15.90;59.40
46754;DHT22;32500;50.620;3.400;2022-12-04T00:27:57;15.90;59.20
46754;DHT22;32500;50.620;3.400;2022-12-04T00:30:23;15.90;59.30
46754;DHT22;32500;50.620;3.400;2022-12-04T00:32:49;15.90;59.30
46754;DHT22;32500;50.620;3.400;2022-12-04T00:35:14;15.90;59.30
46754;DHT22;32500;50.620;3.400;2022-12-04T00:37:40;15.80;59.20
46754;DHT22;32500;50.620;3.400;2022-12-04T00:40:06;15.80;59.20
46754;DHT22;32500;50.620;3.400;2022-12-04T00:42:32;15.80;59.10
46754;DHT22;32500;50.620;3.400;2022-12-04T00:44:57;15.80;59.10
46754;DHT22;32500;50.620;3.400;2022-12-04T00:47:23;15.80;59.20
46754;DHT22;32500;50.620;3.400;2022-12-04T00:49:49;15.80;59.20
46754;DHT22;32500;50.620;3.400;2022-12-04T00:52:15;15.70;59.20
46754;DHT22;32500;50.620;3.400;2022-12-04T00:54:40;15.70;59.40
46754;DHT22;32500;50.620;3.400;2022-12-04T00:57:06;15.70;59.50
46754;DHT22;32500;50.620;3.400;2022-12-04T00:59:32;15.70;59.50
46754;DHT22;32500;50.620;3.400;2022-12-04T01:01:57;15.70;59.60
46754;DHT22;32500;50.620;3.400;2022-12-04T01:04:23;15.70;59.40
46754;DHT22;32500;50.620;3.400;2022-12-04T01:06:49;15.60;59.40
46754;DHT22;32500;50.620;3.400;2022-12-04T01:09:14;15.60;59.70
46754;DHT22;32500;50.620;3.400;2022-12-04T01:11:40;15.50;59.60
46754;DHT22;32500;50.620;3.400;2022-12-04T01:14:06;15.50;59.50
46754;DHT22;32500;50.620;3.400;2022-12-04T01:16:34;15.50;59.60
46754;DHT22;32500;50.620;3.400;2022-12-04T01:19:00;15.50;59.70
46754;DHT22;32500;50.620;3.400;2022-12-04T01:21:26;15.50;59.70
46754;DHT22;32500;50.620;3.400;2022-12-04T01:23:52;15.50;59.80
46754;DHT22;32500;50.620;3.400;2022-12-04T01:26:18;15.40;59.80
46754;DHT22;32500;50.620;3.400;2022-12-04T01:28:44;15.30;59.90
46754;DHT22;32500;50.620;3.400;2022-12-04T01:31:15;15.30;59.90
46754;DHT22;32500;50.620;3.400;2022-12-04T01:33:42;15.40;59.90
46754;DHT22;32500;50.620;3.400;2022-12-04T01:36:10;15.30;59.80
46754;DHT22;32500;50.620;3.400;2022-12-04T01:38:36;15.30;59.90
46754;DHT22;32500;50.620;3.400;2022-12-04T01:41:02;15.20;59.90
46754;DHT22;32500;50.620;3.400;2022-12-04T01:43:30;15.20;59.90
46754;DHT22;32500;50.620;3.400;2022-12-04T01:46:00;15.20;59.90
46754;DHT22;32500;50.620;3.400;2022-12-04T01:51:19;15.20;60.00
46754;DHT22;32500;50.620;3.400;2022-12-04T01:53:52;15.10;60.40
46754;DHT22;32500;50.620;3.400;2022-12-04T01:56:22;15.10;60.00
46754;DHT22;32500;50.620;3.400;2022-12-04T01:58:52;15.10;60.00
46754;DHT22;32500;50.620;3.400;2022-12-04T02:01:18;15.10;60.10
46754;DHT22;32500;50.620;3.400;2022-12-04T02:03:44;15.10;60.10
46754;DHT22;32500;50.620;3.400;2022-12-04T02:06:09;15.00;60.10
46754;DHT22;32500;50.620;3.400;2022-12-04T02:08:35;15.00;60.00
46754;DHT22;32500;50.620;3.400;2022-12-04T02:11:29;15.00;60.00
46754;DHT22;32500;50.620;3.400;2022-12-04T02:14:19;15.00;60.20
46754;DHT22;32500;50.620;3.400;2022-12-04T02:21:43;14.90;60.30
46754;DHT22;32500;50.620;3.400;2022-12-04T02:24:31;14.80;60.40
46754;DHT22;32500;50.620;3.400;2022-12-04T02:27:05;14.80;60.30
46754;DHT22;32500;50.620;3.400;2022-12-04T02:29:34;14.80;60.30
46754;DHT22;32500;50.620;3.400;2022-12-04T02:32:18;14.80;60.50
46754;DHT22;32500;50.620;3.400;2022-12-04T02:35:14;14.80;60.40
46754;DHT22;32500;50.620;3.400;2022-12-04T02:37:49;14.80;60.30
46754;DHT22;32500;50.620;3.400;2022-12-04T02:40:30;14.70;60.40
46754;DHT22;32500;50.620;3.400;2022-12-04T02:43:09;14.70;60.50
46754;DHT22;32500;50.620;3.400;2022-12-04T02:45:43;14.70;60.40
46754;DHT22;32500;50.620;3.400;2022-12-04T02:48:12;14.70;60.40
46754;DHT22;32500;50.620;3.400;2022-12-04T02:50:39;14.70;61.20
46754;DHT22;32500;50.620;3.400;2022-12-04T02:53:16;14.60;60.50
46754;DHT22;32500;50.620;3.400;2022-12-04T02:56:05;14.60;60.60
46754;DHT22;32500;50.620;3.400;2022-12-04T02:58:38;14.60;60.70
46754;DHT22;32500;50.620;3.400;2022-12-04T03:01:06;14.60;60.70
46754;DHT22;32500;50.620;3.400;2022-12-04T03:03:58;14.60;60.60
46754;DHT22;32500;50.620;3.400;2022-12-04T03:06:28;14.50;60.70
46754;DHT22;32500;50.620;3.400;2022-12-04T03:09:22;14.50;60.70
46754;DHT22;32500;50.620;3.400;2022-12-04T03:11:51;14.50;60.80
46754;DHT22;32500;50.620;3.400;2022-12-04T03:14:39;14.50;60.90
46754;DHT22;32500;50.620;3.400;2022-12-04T03:17:18;14.40;60.80
46754;DHT22;32500;50.620;3.400;2022-12-04T03:19:51;14.40;61.80
46754;DHT22;32500;50.620;3.400;2022-12-04T03:22:18;14.40;60.90
46754;DHT22;32500;50.620;3.400;2022-12-04T03:24:50;14.40;61.00
46754;DHT22;32500;50.620;3.400;2022-12-04T03:27:29;14.40;61.10
46754;DHT22;32500;50.620;3.400;2022-12-04T03:30:11;14.40;61.00
46754;DHT22;32500;50.620;3.400;2022-12-04T03:32:43;14.30;61.00
46754;DHT22;32500;50.620;3.400;2022-12-04T03:35:11;14.30;60.80
46754;DHT22;32500;50.620;3.400;2022-12-04T03:40:22;14.30;61.00
46754;DHT22;32500;50.620;3.400;2022-12-04T03:43:01;14.30;60.80
46754;DHT22;32500;50.620;3.400;2022-12-04T03:45:58;14.30;60.90
46754;DHT22;32500;50.620;3.400;2022-12-04T03:51:21;14.30;60.90
46754;DHT22;32500;50.620;3.400;2022-12-04T03:53:56;14.20;60.80
46754;DHT22;32500;50.620;3.400;2022-12-04T03:56:28;14.30;60.90
46754;DHT22;32500;50.620;3.400;2022-12-04T03:58:59;14.20;60.90
46754;DHT22;32500;50.620;3.400;2022-12-04T04:01:31;14.20;60.80
46754;DHT22;32500;50.620;3.400;2022-12-04T04:03:59;14.20;60.90
46754;DHT22;32500;50.620;3.400;2022-12-04T04:06:29;14.20;60.80
46754;DHT22;32500;50.620;3.400;2022-12-04T04:08:58;14.20;60.80
46754;DHT22;32500;50.620;3.400;2022-12-04T04:11:30;14.20;60.90
46754;DHT22;32500;50.620;3.400;2022-12-04T04:14:10;14.10;60.90
46754;DHT22;32500;50.620;3.400;2022-12-04T04:17:01;14.10;60.90
46754;DHT22;32500;50.620;3.400;2022-12-04T04:19:50;14.10;60.90
46754;DHT22;32500;50.620;3.400;2022-12-04T04:22:37;14.10;60.80
46754;DHT22;32500;50.620;3.400;2022-12-04T04:25:25;14.10;60.90
46754;DHT22;32500;50.620;3.400;2022-12-04T04:27:53;14.10;60.70
46754;DHT22;32500;50.620;3.400;2022-12-04T04:30:19;14.10;60.80
46754;DHT22;32500;50.620;3.400;2022-12-04T04:32:58;14.10;60.80
46754;DHT22;32500;50.620;3.400;2022-12-04T04:35:43;14.10;61.00
46754;DHT22;32500;50.620;3.400;2022-12-04T04:38:14;14.10;60.90
46754;DHT22;32500;50.620;3.400;2022-12-04T04:40:59;14.00;60.80
46754;DHT22;32500;50.620;3.400;2022-12-04T04:43:32;14.10;60.80
46754;DHT22;32500;50.620;3.400;2022-12-04T04:46:17;14.00;60.60
46754;DHT22;32500;50.620;3.400;2022-12-04T04:48:47;14.00;60.70
46754;DHT22;32500;50.620;3.400;2022-12-04T04:51:14;14.00;60.70
46754;DHT22;32500;50.620;3.400;2022-12-04T04:53:51;14.00;60.80
46754;DHT22;32500;50.620;3.400;2022-12-04T04:56:19;13.90;60.90
46754;DHT22;32500;50.620;3.400;2022-12-04T04:58:45;13.90;61.00
46754;DHT22;32500;50.620;3.400;2022-12-04T05:01:13;13.90;61.00
46754;DHT22;32500;50.620;3.400;2022-12-04T05:03:39;13.90;60.90
46754;DHT22;32500;50.620;3.400;2022-12-04T05:06:05;14.00;60.90
46754;DHT22;32500;50.620;3.400;2022-12-04T05:08:31;13.90;60.80
46754;DHT22;32500;50.620;3.400;2022-12-04T05:10:57;13.90;60.80
46754;DHT22;32500;50.620;3.400;2022-12-04T05:13:23;13.90;60.70
46754;DHT22;32500;50.620;3.400;2022-12-04T05:15:59;13.90;60.60
46754;DHT22;32500;50.620;3.400;2022-12-04T05:18:25;13.90;60.90
46754;DHT22;32500;50.620;3.400;2022-12-04T05:20:51;13.90;60.80
46754;DHT22;32500;50.620;3.400;2022-12-04T05:23:17;13.90;60.80
46754;DHT22;32500;50.620;3.400;2022-12-04T05:25:43;13.90;60.90
46754;DHT22;32500;50.620;3.400;2022-12-04T05:28:08;13.80;60.80
46754;DHT22;32500;50.620;3.400;2022-12-04T05:30:34;13.90;60.60
46754;DHT22;32500;50.620;3.400;2022-12-04T05:33:00;13.90;60.70
46754;DHT22;32500;50.620;3.400;2022-12-04T05:35:26;13.80;60.70
46754;DHT22;32500;50.620;3.400;2022-12-04T05:37:51;13.80;60.70
46754;DHT22;32500;50.620;3.400;2022-12-04T05:40:17;13.90;60.70
46754;DHT22;32500;50.620;3.400;2022-12-04T05:42:43;13.80;61.40
46754;DHT22;32500;50.620;3.400;2022-12-04T05:45:08;13.90;60.60
46754;DHT22;32500;50.620;3.400;2022-12-04T05:47:42;13.80;60.70
46754;DHT22;32500;50.620;3.400;2022-12-04T05:50:09;13.80;60.60
46754;DHT22;32500;50.620;3.400;2022-12-04T05:52:35;13.80;60.50
46754;DHT22;32500;50.620;3.400;2022-12-04T05:55:00;13.80;60.60
46754;DHT22;32500;50.620;3.400;2022-12-04T05:57:26;13.80;60.80
46754;DHT22;32500;50.620;3.400;2022-12-04T05:59:52;13.80;60.70
46754;DHT22;32500;50.620;3.400;2022-12-04T06:02:18;13.70;60.90
46754;DHT22;32500;50.620;3.400;2022-12-04T06:04:44;13.70;60.90
46754;DHT22;32500;50.620;3.400;2022-12-04T06:07:10;13.80;60.70
46754;DHT22;32500;50.620;3.400;2022-12-04T06:09:36;13.80;60.70
46754;DHT22;32500;50.620;3.400;2022-12-04T06:12:02;13.70;60.60
46754;DHT22;32500;50.620;3.400;2022-12-04T06:14:28;13.70;60.80
46754;DHT22;32500;50.620;3.400;2022-12-04T06:16:55;13.70;60.70
46754;DHT22;32500;50.620;3.400;2022-12-04T06:19:21;13.70;60.70
46754;DHT22;32500;50.620;3.400;2022-12-04T06:21:49;13.80;60.70
46754;DHT22;32500;50.620;3.400;2022-12-04T06:24:17;13.70;60.60
46754;DHT22;32500;50.620;3.400;2022-12-04T06:26:44;13.70;60.60
46754;DHT22;32500;50.620;3.400;2022-12-04T06:29:11;13.70;60.80
46754;DHT22;32500;50.620;3.400;2022-12-04T06:31:37;13.70;60.50
46754;DHT22;32500;50.620;3.400;2022-12-04T06:34:04;13.70;60.60
46754;DHT22;32500;50.620;3.400;2022-12-04T06:36:30;13.70;60.60
46754;DHT22;32500;50.620;3.400;2022-12-04T06:38:56;13.70;60.50
46754;DHT22;32500;50.620;3.400;2022-12-04T06:41:23;13.70;60.60
46754;DHT22;32500;50.620;3.400;2022-12-04T06:43:49;13.70;60.50
46754;DHT22;32500;50.620;3.400;2022-12-04T06:46:21;13.70;60.60
46754;DHT22;32500;50.620;3.400;2022-12-04T06:48:47;13.70;60.50
46754;DHT22;32500;50.620;3.400;2022-12-04T06:51:14;13.60;60.70
46754;DHT22;32500;50.620;3.400;2022-12-04T06:53:40;13.60;60.80
46754;DHT22;32500;50.620;3.400;2022-12-04T06:56:09;13.60;60.80
46754;DHT22;32500;50.620;3.400;2022-12-04T06:58:35;13.60;60.60
46754;DHT22;32500;50.620;3.400;2022-12-04T07:01:09;13.70;60.50
46754;DHT22;32500;50.620;3.400;2022-12-04T07:03:37;13.60;60.50
46754;DHT22;32500;50.620;3.400;2022-12-04T07:06:32;13.60;60.50
46754;DHT22;32500;50.620;3.400;2022-12-04T07:11:25;13.60;60.30
46754;DHT22;32500;50.620;3.400;2022-12-04T07:13:51;13.60;60.30
46754;DHT22;32500;50.620;3.400;2022-12-04T07:16:19;13.60;60.40
46754;DHT22;32500;50.620;3.400;2022-12-04T07:18:45;13.50;60.50
46754;DHT22;32500;50.620;3.400;2022-12-04T07:21:16;13.60;60.40
46754;DHT22;32500;50.620;3.400;2022-12-04T07:23:42;13.60;60.20
46754;DHT22;32500;50.620;3.400;2022-12-04T07:26:12;13.50;60.30
46754;DHT22;32500;50.620;3.400;2022-12-04T07:28:39;13.50;60.30
46754;DHT22;32500;50.620;3.400;2022-12-04T07:31:05;13.50;60.10
46754;DHT22;32500;50.620;3.400;2022-12-04T07:33:32;13.50;60.40
46754;DHT22;32500;50.620;3.400;2022-12-04T07:35:59;13.50;60.10
46754;DHT22;32500;50.620;3.400;2022-12-04T07:38:25;13.50;60.10
46754;DHT22;32500;50.620;3.400;2022-12-04T07:40:55;13.50;60.30
46754;DHT22;32500;50.620;3.400;2022-12-04T07:43:21;13.50;60.30
46754;DHT22;32500;50.620;3.400;2022-12-04T07:45:46;13.50;60.40
46754;DHT22;32500;50.620;3.400;2022-12-04T07:48:12;13.50;60.30
46754;DHT22;32500;50.620;3.400;2022-12-04T07:50:37;13.50;60.40
46754;DHT22;32500;50.620;3.400;2022-12-04T07:53:03;13.50;60.60
46754;DHT22;32500;50.620;3.400;2022-12-04T07:55:29;13.50;60.60
46754;DHT22;32500;50.620;3.400;2022-12-04T07:57:54;13.40;60.70
46754;DHT22;32500;50.620;3.400;2022-12-04T08:00:20;13.40;60.70
46754;DHT22;32500;50.620;3.400;2022-12-04T08:02:46;13.50;60.60
46754;DHT22;32500;50.620;3.400;2022-12-04T08:05:11;13.50;60.70
46754;DHT22;32500;50.620;3.400;2022-12-04T08:07:37;13.50;60.60
46754;DHT22;32500;50.620;3.400;2022-12-04T08:10:03;13.40;60.50
46754;DHT22;32500;50.620;3.400;2022-12-04T08:12:30;13.40;60.70
46754;DHT22;32500;50.620;3.400;2022-12-04T08:14:57;13.40;60.60
46754;DHT22;32500;50.620;3.400;2022-12-04T08:17:23;13.40;60.60
46754;DHT22;32500;50.620;3.400;2022-12-04T08:19:48;13.40;60.50
46754;DHT22;32500;50.620;3.400;2022-12-04T08:22:14;13.40;60.50
46754;DHT22;32500;50.620;3.400;2022-12-04T08:24:40;13.40;60.60
46754;DHT22;32500;50.620;3.400;2022-12-04T08:27:05;13.40;60.70
46754;DHT22;32500;50.620;3.400;2022-12-04T08:29:31;13.50;60.60
46754;DHT22;32500;50.620;3.400;2022-12-04T08:31:57;13.40;60.40
46754;DHT22;32500;50.620;3.400;2022-12-04T08:34:23;13.40;60.60
46754;DHT22;32500;50.620;3.400;2022-12-04T08:36:49;13.40;60.40
46754;DHT22;32500;50.620;3.400;2022-12-04T08:39:14;13.30;60.60
46754;DHT22;32500;50.620;3.400;2022-12-04T08:41:40;13.30;60.90
46754;DHT22;32500;50.620;3.400;2022-12-04T08:44:06;13.30;60.90
46754;DHT22;32500;50.620;3.400;2022-12-04T08:46:31;13.30;60.70
46754;DHT22;32500;50.620;3.400;2022-12-04T08:48:57;13.30;60.80
46754;DHT22;32500;50.620;3.400;2022-12-04T08:51:26;13.30;61.20
46754;DHT22;32500;50.620;3.400;2022-12-04T08:53:57;13.30;61.20
46754;DHT22;32500;50.620;3.400;2022-12-04T08:56:24;13.20;61.50
46754;DHT22;32500;50.620;3.400;2022-12-04T08:58:50;13.30;61.70
46754;DHT22;32500;50.620;3.400;2022-12-04T09:01:16;13.30;62.10
46754;DHT22;32500;50.620;3.400;2022-12-04T09:03:42;13.30;62.30
46754;DHT22;32500;50.620;3.400;2022-12-04T09:06:10;13.30;62.10
46754;DHT22;32500;50.620;3.400;2022-12-04T09:08:36;13.30;61.70
46754;DHT22;32500;50.620;3.400;2022-12-04T09:11:14;13.20;61.60
46754;DHT22;32500;50.620;3.400;2022-12-04T09:13:41;13.30;61.50
46754;DHT22;32500;50.620;3.400;2022-12-04T09:16:13;13.40;61.50
46754;DHT22;32500;50.620;3.400;2022-12-04T09:18:39;13.40;61.50
46754;DHT22;32500;50.620;3.400;2022-12-04T09:21:08;13.50;61.20
46754;DHT22;32500;50.620;3.400;2022-12-04T09:23:35;13.50;61.30
46754;DHT22;32500;50.620;3.400;2022-12-04T09:26:02;13.60;62.00
46754;DHT22;32500;50.620;3.400;2022-12-04T09:28:28;13.60;61.80
46754;DHT22;32500;50.620;3.400;2022-12-04T09:30:58;13.50;61.20
46754;DHT22;32500;50.620;3.400;2022-12-04T09:33:24;13.50;61.30
46754;DHT22;32500;50.620;3.400;2022-12-04T09:35:49;13.60;62.10
46754;DHT22;32500;50.620;3.400;2022-12-04T09:38:15;13.70;61.50
46754;DHT22;32500;50.620;3.400;2022-12-04T09:41:00;13.70;61.50
46754;DHT22;32500;50.620;3.400;2022-12-04T09:43:34;13.70;61.20
46754;DHT22;32500;50.620;3.400;2022-12-04T09:46:16;13.80;61.10
46754;DHT22;32500;50.620;3.400;2022-12-04T09:48:43;13.90;61.00
46754;DHT22;32500;50.620;3.400;2022-12-04T09:51:10;14.00;60.90
46754;DHT22;32500;50.620;3.400;2022-12-04T09:53:48;14.00;60.90
46754;DHT22;32500;50.620;3.400;2022-12-04T09:56:19;14.30;60.60
46754;DHT22;32500;50.620;3.400;2022-12-04T09:58:56;14.50;60.40
46754;DHT22;32500;50.620;3.400;2022-12-04T10:01:45;14.60;60.20
46754;DHT22;32500;50.620;3.400;2022-12-04T10:04:12;14.70;60.40
46754;DHT22;32500;50.620;3.400;2022-12-04T10:23:22;14.50;61.80
46754;DHT22;32500;50.620;3.400;2022-12-04T10:25:51;14.60;61.80
46754;DHT22;32500;50.620;3.400;2022-12-04T10:28:38;14.60;61.80
46754;DHT22;32500;50.620;3.400;2022-12-04T10:31:10;14.50;61.80
46754;DHT22;32500;50.620;3.400;2022-12-04T10:33:41;14.60;61.50
46754;DHT22;32500;50.620;3.400;2022-12-04T10:36:15;14.60;61.90
46754;DHT22;32500;50.620;3.400;2022-12-04T10:39:13;14.50;61.70
46754;DHT22;32500;50.620;3.400;2022-12-04T10:44:20;14.50;62.00
46754;DHT22;32500;50.620;3.400;2022-12-04T10:46:46;14.50;62.00
46754;DHT22;32500;50.620;3.400;2022-12-04T10:49:23;14.50;61.90
46754;DHT22;32500;50.620;3.400;2022-12-04T10:51:49;14.40;61.60
46754;DHT22;32500;50.620;3.400;2022-12-04T10:57:00;14.40;62.10
46754;DHT22;32500;50.620;3.400;2022-12-04T10:59:26;14.40;61.90
46754;DHT22;32500;50.620;3.400;2022-12-04T11:04:26;14.40;61.80
46754;DHT22;32500;50.620;3.400;2022-12-04T11:07:17;14.30;61.90
46754;DHT22;32500;50.620;3.400;2022-12-04T11:10:04;14.40;62.00
46754;DHT22;32500;50.620;3.400;2022-12-04T11:12:31;14.40;61.90
46754;DHT22;32500;50.620;3.400;2022-12-04T11:17:31;14.60;61.40
46754;DHT22;32500;50.620;3.400;2022-12-04T11:20:23;14.70;60.90
46754;DHT22;32500;50.620;3.400;2022-12-04T11:22:57;14.70;61.50
46754;DHT22;32500;50.620;3.400;2022-12-04T11:25:30;14.70;61.00
46754;DHT22;32500;50.620;3.400;2022-12-04T11:28:00;14.70;61.00
46754;DHT22;32500;50.620;3.400;2022-12-04T11:30:34;14.70;61.10
46754;DHT22;32500;50.620;3.400;2022-12-04T11:33:02;14.70;61.20
46754;DHT22;32500;50.620;3.400;2022-12-04T11:35:29;14.70;61.40
46754;DHT22;32500;50.620;3.400;2022-12-04T11:40:24;14.70;62.00
46754;DHT22;32500;50.620;3.400;2022-12-04T11:43:16;14.70;62.40
46754;DHT22;32500;50.620;3.400;2022-12-04T11:46:00;14.70;62.50
46754;DHT22;32500;50.620;3.400;2022-12-04T11:48:29;14.70;62.50
46754;DHT22;32500;50.620;3.400;2022-12-04T11:51:11;14.70;62.80
46754;DHT22;32500;50.620;3.400;2022-12-04T11:56:26;14.70;63.50
46754;DHT22;32500;50.620;3.400;2022-12-04T12:01:46;14.50;63.20
46754;DHT22;32500;50.620;3.400;2022-12-04T12:15:51;14.50;64.50
46754;DHT22;32500;50.620;3.400;2022-12-04T12:20:02;14.40;65.10
46754;DHT22;32500;50.620;3.400;2022-12-04T12:25:49;14.50;66.10
46754;DHT22;32500;50.620;3.400;2022-12-04T12:28:50;14.50;66.40
46754;DHT22;32500;50.620;3.400;2022-12-04T12:33:59;14.50;66.80
46754;DHT22;32500;50.620;3.400;2022-12-04T12:36:28;14.60;67.10
46754;DHT22;32500;50.620;3.400;2022-12-04T12:39:02;14.60;66.30
46754;DHT22;32500;50.620;3.400;2022-12-04T12:41:38;14.60;65.50
46754;DHT22;32500;50.620;3.400;2022-12-04T12:44:21;14.60;65.00
46754;DHT22;32500;50.620;3.400;2022-12-04T12:46:54;14.60;64.80
46754;DHT22;32500;50.620;3.400;2022-12-04T12:54:40;14.60;65.40
46754;DHT22;32500;50.620;3.400;2022-12-04T12:57:32;14.70;65.00
46754;DHT22;32500;50.620;3.400;2022-12-04T13:00:15;14.60;65.10
46754;DHT22;32500;50.620;3.400;2022-12-04T13:05:12;14.70;67.20
46754;DHT22;32500;50.620;3.400;2022-12-04T13:13:11;14.60;66.80
46754;DHT22;32500;50.620;3.400;2022-12-04T13:15:47;14.60;66.40
46754;DHT22;32500;50.620;3.400;2022-12-04T13:18:32;14.50;65.70
46754;DHT22;32500;50.620;3.400;2022-12-04T13:21:03;14.50;65.80
46754;DHT22;32500;50.620;3.400;2022-12-04T13:26:52;14.60;64.60
46754;DHT22;32500;50.620;3.400;2022-12-04T13:29:50;14.50;64.50
46754;DHT22;32500;50.620;3.400;2022-12-04T13:38:40;14.30;64.00
46754;DHT22;32500;50.620;3.400;2022-12-04T13:41:21;14.30;63.70
46754;DHT22;32500;50.620;3.400;2022-12-04T13:43:49;14.30;63.60
46754;DHT22;32500;50.620;3.400;2022-12-04T13:48:53;14.20;63.50
46754;DHT22;32500;50.620;3.400;2022-12-04T13:51:45;14.20;63.60
46754;DHT22;32500;50.620;3.400;2022-12-04T13:56:35;14.20;63.40
46754;DHT22;32500;50.620;3.400;2022-12-04T13:59:04;14.20;63.10
46754;DHT22;32500;50.620;3.400;2022-12-04T14:01:38;14.20;63.20
46754;DHT22;32500;50.620;3.400;2022-12-04T14:04:05;14.10;62.80
46754;DHT22;32500;50.620;3.400;2022-12-04T14:06:37;14.10;62.90
46754;DHT22;32500;50.620;3.400;2022-12-04T14:09:07;14.20;62.80
46754;DHT22;32500;50.620;3.400;2022-12-04T14:11:45;14.20;62.70
46754;DHT22;32500;50.620;3.400;2022-12-04T14:14:33;14.20;62.70
46754;DHT22;32500;50.620;3.400;2022-12-04T14:17:00;14.30;62.30
46754;DHT22;32500;50.620;3.400;2022-12-04T14:19:35;14.30;62.60
46754;DHT22;32500;50.620;3.400;2022-12-04T14:22:01;14.30;62.50
46754;DHT22;32500;50.620;3.400;2022-12-04T14:24:38;14.30;62.40
46754;DHT22;32500;50.620;3.400;2022-12-04T14:29:59;14.30;62.20
46754;DHT22;32500;50.620;3.400;2022-12-04T14:32:30;14.50;62.30
46754;DHT22;32500;50.620;3.400;2022-12-04T14:34:56;14.50;61.90
46754;DHT22;32500;50.620;3.400;2022-12-04T14:37:55;14.50;61.50
46754;DHT22;32500;50.620;3.400;2022-12-04T14:40:26;14.50;62.50
46754;DHT22;32500;50.620;3.400;2022-12-04T14:42:53;14.60;61.80
46754;DHT22;32500;50.620;3.400;2022-12-04T14:45:30;14.70;61.80
46754;DHT22;32500;50.620;3.400;2022-12-04T14:48:09;14.70;61.80
46754;DHT22;32500;50.620;3.400;2022-12-04T14:58:51;14.70;61.80
46754;DHT22;32500;50.620;3.400;2022-12-04T15:01:31;14.70;61.60
46754;DHT22;32500;50.620;3.400;2022-12-04T15:04:00;14.70;61.50
46754;DHT22;32500;50.620;3.400;2022-12-04T15:06:31;14.70;61.30
46754;DHT22;32500;50.620;3.400;2022-12-04T15:09:03;14.70;61.10
46754;DHT22;32500;50.620;3.400;2022-12-04T15:11:52;14.60;60.90
46754;DHT22;32500;50.620;3.400;2022-12-04T15:14:47;14.70;61.30
46754;DHT22;32500;50.620;3.400;2022-12-04T15:17:16;14.70;61.30
46754;DHT22;32500;50.620;3.400;2022-12-04T15:19:42;14.70;61.20
46754;DHT22;32500;50.620;3.400;2022-12-04T15:22:25;14.80;60.80
46754;DHT22;32500;50.620;3.400;2022-12-04T15:24:51;14.80;60.50
46754;DHT22;32500;50.620;3.400;2022-12-04T15:27:20;14.80;60.40
46754;DHT22;32500;50.620;3.400;2022-12-04T15:29:48;14.80;60.50
46754;DHT22;32500;50.620;3.400;2022-12-04T15:32:18;14.80;60.50
46754;DHT22;32500;50.620;3.400;2022-12-04T15:35:14;14.90;61.00
46754;DHT22;32500;50.620;3.400;2022-12-04T15:37:41;15.00;60.30
46754;DHT22;32500;50.620;3.400;2022-12-04T15:40:07;14.90;60.00
46754;DHT22;32500;50.620;3.400;2022-12-04T15:42:36;15.00;59.90
46754;DHT22;32500;50.620;3.400;2022-12-04T15:45:22;15.00;59.80
46754;DHT22;32500;50.620;3.400;2022-12-04T15:47:50;15.00;59.70
46754;DHT22;32500;50.620;3.400;2022-12-04T15:55:32;15.00;59.80
46754;DHT22;32500;50.620;3.400;2022-12-04T15:58:06;14.80;60.00
46754;DHT22;32500;50.620;3.400;2022-12-04T16:00:37;14.80;60.30
46754;DHT22;32500;50.620;3.400;2022-12-04T16:03:22;14.80;60.70
46754;DHT22;32500;50.620;3.400;2022-12-04T16:05:48;14.80;60.80
46754;DHT22;32500;50.620;3.400;2022-12-04T16:08:27;14.70;61.00
46754;DHT22;32500;50.620;3.400;2022-12-04T16:13:48;14.80;60.50
46754;DHT22;32500;50.620;3.400;2022-12-04T16:16:16;14.80;60.30
46754;DHT22;32500;50.620;3.400;2022-12-04T16:18:42;14.80;60.40
46754;DHT22;32500;50.620;3.400;2022-12-04T16:21:17;14.80;60.50
46754;DHT22;32500;50.620;3.400;2022-12-04T16:23:43;14.80;60.40
46754;DHT22;32500;50.620;3.400;2022-12-04T16:26:13;14.80;60.40
46754;DHT22;32500;50.620;3.400;2022-12-04T16:28:39;14.80;60.30
46754;DHT22;32500;50.620;3.400;2022-12-04T16:31:04;14.80;60.30
46754;DHT22;32500;50.620;3.400;2022-12-04T16:33:30;14.90;60.40
46754;DHT22;32500;50.620;3.400;2022-12-04T16:35:56;14.80;60.20
46754;DHT22;32500;50.620;3.400;2022-12-04T16:38:21;14.80;60.20
46754;DHT22;32500;50.620;3.400;2022-12-04T16:40:47;14.90;60.20
46754;DHT22;32500;50.620;3.400;2022-12-04T16:43:15;14.90;60.30
46754;DHT22;32500;50.620;3.400;2022-12-04T16:45:47;14.90;60.00
46754;DHT22;32500;50.620;3.400;2022-12-04T16:48:13;14.90;60.10
46754;DHT22;32500;50.620;3.400;2022-12-04T16:50:40;14.90;60.00
46754;DHT22;32500;50.620;3.400;2022-12-04T16:53:05;15.00;60.00
46754;DHT22;32500;50.620;3.400;2022-12-04T16:55:36;14.90;60.60
46754;DHT22;32500;50.620;3.400;2022-12-04T16:58:03;14.90;59.90
46754;DHT22;32500;50.620;3.400;2022-12-04T17:00:29;15.00;59.80
46754;DHT22;32500;50.620;3.400;2022-12-04T17:02:55;14.90;59.80
46754;DHT22;32500;50.620;3.400;2022-12-04T17:05:26;14.90;60.80
46754;DHT22;32500;50.620;3.400;2022-12-04T17:07:53;14.90;60.00
46754;DHT22;32500;50.620;3.400;2022-12-04T17:10:20;14.90;60.00
46754;DHT22;32500;50.620;3.400;2022-12-04T17:12:47;14.90;60.00
46754;DHT22;32500;50.620;3.400;2022-12-04T17:15:13;14.90;60.00
46754;DHT22;32500;50.620;3.400;2022-12-04T17:17:39;14.90;60.10
46754;DHT22;32500;50.620;3.400;2022-12-04T17:20:07;14.90;60.10
46754;DHT22;32500;50.620;3.400;2022-12-04T17:22:35;14.90;60.00
46754;DHT22;32500;50.620;3.400;2022-12-04T17:25:01;14.90;60.10
46754;DHT22;32500;50.620;3.400;2022-12-04T17:27:27;15.00;60.00
46754;DHT22;32500;50.620;3.400;2022-12-04T17:29:52;15.00;60.00
46754;DHT22;32500;50.620;3.400;2022-12-04T17:32:18;15.00;60.00
46754;DHT22;32500;50.620;3.400;2022-12-04T17:34:50;15.10;60.00
46754;DHT22;32500;50.620;3.400;2022-12-04T17:37:16;15.00;59.80
46754;DHT22;32500;50.620;3.400;2022-12-04T17:39:42;15.00;60.50
46754;DHT22;32500;50.620;3.400;2022-12-04T17:42:08;15.00;59.80
46754;DHT22;32500;50.620;3.400;2022-12-04T17:44:33;15.10;60.00
46754;DHT22;32500;50.620;3.400;2022-12-04T17:46:59;15.10;59.90
46754;DHT22;32500;50.620;3.400;2022-12-04T17:49:24;15.10;59.90